createdAt,value
2017-07-12T00:00:58.101Z,1000.46
2017-07-12T00:01:58.126Z,1000.42
2017-07-12T00:02:58.151Z,1000.43
2017-07-12T00:03:58.179Z,1000.43
2017-07-12T00:04:58.203Z,1000.43
2017-07-12T00:05:58.230Z,1000.44
2017-07-12T00:06:58.255Z,1000.47
2017-07-12T00:07:58.278Z,1000.43
2017-07-12T00:08:58.304Z,1000.45
2017-07-12T00:09:58.330Z,1000.4
2017-07-12T00:10:58.470Z,1000.42
2017-07-12T00:11:58.379Z,1000.41
2017-07-12T00:12:58.404Z,1000.38
2017-07-12T00:13:58.494Z,1000.36
2017-07-12T00:14:58.455Z,1000.35
2017-07-12T00:15:58.480Z,1000.34
2017-07-12T00:16:58.505Z,1000.3
2017-07-12T00:17:58.532Z,1000.3
2017-07-12T00:18:58.554Z,1000.28
2017-07-12T00:19:58.670Z,1000.29
2017-07-12T00:20:58.606Z,1000.3
2017-07-12T00:21:58.631Z,1000.28
2017-07-12T00:22:58.654Z,1000.29
2017-07-12T00:23:58.680Z,1000.32
2017-07-12T00:24:58.762Z,1000.31
2017-07-12T00:25:58.734Z,1000.36
2017-07-12T00:26:58.760Z,1000.37
2017-07-12T00:27:58.780Z,1000.37
2017-07-12T00:28:58.805Z,1000.4
2017-07-12T00:29:58.829Z,1000.38
2017-07-12T00:30:58.854Z,1000.41
2017-07-12T00:31:58.885Z,1000.38
2017-07-12T00:32:58.904Z,1000.34
2017-07-12T00:33:58.928Z,1000.37
2017-07-12T00:34:58.954Z,1000.37
2017-07-12T00:35:58.978Z,1000.35
2017-07-12T00:36:59.004Z,1000.36
2017-07-12T00:37:59.030Z,1000.36
2017-07-12T00:38:59.059Z,1000.32
2017-07-12T00:39:59.080Z,1000.29
2017-07-12T00:40:59.107Z,1000.28
2017-07-12T00:41:59.130Z,1000.26
2017-07-12T00:42:59.154Z,1000.29
2017-07-12T00:43:59.182Z,1000.23
2017-07-12T00:44:59.204Z,1000.24
2017-07-12T00:45:59.228Z,1000.23
2017-07-12T00:46:59.253Z,1000.2
2017-07-12T00:47:59.279Z,1000.18
2017-07-12T00:48:59.302Z,1000.18
2017-07-12T00:49:59.327Z,1000.14
2017-07-12T00:50:59.353Z,1000.17
2017-07-12T00:51:59.377Z,1000.16
2017-07-12T00:52:59.401Z,1000.17
2017-07-12T00:53:59.427Z,1000.16
2017-07-12T00:54:59.459Z,1000.15
2017-07-12T00:55:59.477Z,1000.12
2017-07-12T00:56:59.499Z,1000.14
2017-07-12T00:57:59.528Z,1000.13
2017-07-12T00:58:59.549Z,1000.13
2017-07-12T00:59:59.572Z,1000.14
2017-07-12T01:00:59.603Z,1000.14
2017-07-12T01:01:59.623Z,1000.14
2017-07-12T01:02:59.656Z,1000.12
2017-07-12T01:03:59.671Z,1000.07
2017-07-12T01:04:59.697Z,1000.04
2017-07-12T01:05:59.722Z,1000.07
2017-07-12T01:06:59.745Z,1000.09
2017-07-12T01:07:59.770Z,1000.09
2017-07-12T01:08:59.794Z,1000.12
2017-07-12T01:09:59.818Z,1000.11
2017-07-12T01:10:59.844Z,1000.06
2017-07-12T01:11:59.869Z,1000.09
2017-07-12T01:12:59.893Z,1000.08
2017-07-12T01:13:59.918Z,1000.08
2017-07-12T01:14:59.941Z,1000.09
2017-07-12T01:15:59.966Z,1000.08
2017-07-12T01:16:59.993Z,1000.09
2017-07-12T01:18:00.015Z,1000.14
2017-07-12T01:19:00.041Z,1000.09
2017-07-12T01:20:00.064Z,1000.1
2017-07-12T01:21:00.089Z,1000.06
2017-07-12T01:22:00.112Z,1000.07
2017-07-12T01:23:00.138Z,1000.04
2017-07-12T01:24:00.163Z,1000.08
2017-07-12T01:25:00.185Z,1000.08
2017-07-12T01:26:00.212Z,1000.06
2017-07-12T01:27:00.234Z,1000.02
2017-07-12T01:28:00.258Z,1000.02
2017-07-12T01:29:00.282Z,999.98
2017-07-12T01:30:00.308Z,999.96
2017-07-12T01:31:00.376Z,999.99
2017-07-12T01:32:00.356Z,999.95
2017-07-12T01:33:00.379Z,999.95
2017-07-12T01:34:00.404Z,999.95
2017-07-12T01:35:00.430Z,999.91
2017-07-12T01:36:00.459Z,999.89
2017-07-12T01:37:00.479Z,999.84
2017-07-12T01:38:00.508Z,999.82
2017-07-12T01:39:00.526Z,999.78
2017-07-12T01:40:00.556Z,999.77
2017-07-12T01:41:00.573Z,999.75
2017-07-12T01:42:00.701Z,999.72
2017-07-12T01:43:00.696Z,999.74
2017-07-12T01:44:00.649Z,999.71
2017-07-12T01:45:00.669Z,999.75
2017-07-12T01:46:00.698Z,999.7
2017-07-12T01:47:00.719Z,999.71
2017-07-12T01:48:00.767Z,999.71
2017-07-12T01:49:00.767Z,999.71
2017-07-12T01:50:00.792Z,999.73
2017-07-12T01:51:00.815Z,999.77
2017-07-12T01:52:00.843Z,999.8
2017-07-12T01:53:00.864Z,999.81
2017-07-12T01:54:00.889Z,999.8
2017-07-12T01:55:00.911Z,999.8
2017-07-12T01:56:00.942Z,999.81
2017-07-12T01:57:00.960Z,999.79
2017-07-12T01:58:00.985Z,999.77
2017-07-12T01:59:01.008Z,999.76
2017-07-12T02:00:01.034Z,999.77
2017-07-12T02:01:01.058Z,999.75
2017-07-12T02:02:01.082Z,999.73
2017-07-12T02:03:01.105Z,999.7
2017-07-12T02:04:01.128Z,999.68
2017-07-12T02:05:01.152Z,999.66
2017-07-12T02:06:01.177Z,999.65
2017-07-12T02:07:01.201Z,999.63
2017-07-12T02:08:01.234Z,999.68
2017-07-12T02:09:01.248Z,999.68
2017-07-12T02:10:01.345Z,999.67
2017-07-12T02:11:01.297Z,999.66
2017-07-12T02:12:01.322Z,999.67
2017-07-12T02:13:01.345Z,999.67
2017-07-12T02:14:01.380Z,999.71
2017-07-12T02:15:01.394Z,999.7
2017-07-12T02:16:01.425Z,999.68
2017-07-12T02:17:01.441Z,999.69
2017-07-12T02:18:01.466Z,999.72
2017-07-12T02:19:01.488Z,999.66
2017-07-12T02:20:01.512Z,999.64
2017-07-12T02:21:01.538Z,999.61
2017-07-12T02:22:01.561Z,999.66
2017-07-12T02:23:01.584Z,999.68
2017-07-12T02:24:01.670Z,999.71
2017-07-12T02:25:01.633Z,999.7
2017-07-12T02:26:01.657Z,999.73
2017-07-12T02:27:01.709Z,999.69
2017-07-12T02:28:01.703Z,999.64
2017-07-12T02:29:01.727Z,999.64
2017-07-12T02:30:01.753Z,999.63
2017-07-12T02:31:01.780Z,999.57
2017-07-12T02:32:01.799Z,999.61
2017-07-12T02:33:01.824Z,999.6
2017-07-12T02:34:01.846Z,999.61
2017-07-12T02:35:01.871Z,999.59
2017-07-12T02:36:01.895Z,999.61
2017-07-12T02:37:01.920Z,999.59
2017-07-12T02:38:01.942Z,999.68
2017-07-12T02:39:01.966Z,999.63
2017-07-12T02:40:01.989Z,999.66
2017-07-12T02:41:02.015Z,999.64
2017-07-12T02:42:02.037Z,999.6
2017-07-12T02:43:02.061Z,999.53
2017-07-12T02:44:02.087Z,999.54
2017-07-12T02:45:02.108Z,999.5
2017-07-12T02:46:02.143Z,999.49
2017-07-12T02:47:02.157Z,999.53
2017-07-12T02:48:02.180Z,999.53
2017-07-12T02:49:02.203Z,999.53
2017-07-12T02:50:02.227Z,999.54
2017-07-12T02:51:02.253Z,999.55
2017-07-12T02:52:02.280Z,999.56
2017-07-12T02:53:02.298Z,999.54
2017-07-12T02:54:02.322Z,999.52
2017-07-12T02:55:02.347Z,999.49
2017-07-12T02:56:02.371Z,999.49
2017-07-12T02:57:02.394Z,999.44
2017-07-12T02:58:02.417Z,999.44
2017-07-12T02:59:02.441Z,999.42
2017-07-12T03:00:02.465Z,999.43
2017-07-12T03:01:02.490Z,999.39
2017-07-12T03:02:02.513Z,999.42
2017-07-12T03:03:02.535Z,999.41
2017-07-12T03:04:02.560Z,999.43
2017-07-12T03:05:02.583Z,999.46
2017-07-12T03:06:02.606Z,999.45
2017-07-12T03:07:02.679Z,999.46
2017-07-12T03:08:02.653Z,999.46
2017-07-12T03:09:02.676Z,999.41
2017-07-12T03:10:02.701Z,999.4
2017-07-12T03:11:02.723Z,999.39
2017-07-12T03:12:02.750Z,999.38
2017-07-12T03:13:02.771Z,999.42
2017-07-12T03:14:02.912Z,999.36
2017-07-12T03:15:02.819Z,999.38
2017-07-12T03:16:02.843Z,999.37
2017-07-12T03:17:02.865Z,999.36
2017-07-12T03:18:02.890Z,999.38
2017-07-12T03:19:02.913Z,999.4
2017-07-12T03:20:02.937Z,999.39
2017-07-12T03:21:02.961Z,999.41
2017-07-12T03:22:02.982Z,999.36
2017-07-12T03:23:03.009Z,999.39
2017-07-12T03:24:03.031Z,999.39
2017-07-12T03:25:03.053Z,999.42
2017-07-12T03:26:03.077Z,999.44
2017-07-12T03:27:03.101Z,999.4
2017-07-12T03:28:03.125Z,999.42
2017-07-12T03:29:03.147Z,999.4
2017-07-12T03:30:03.170Z,999.39
2017-07-12T03:31:03.254Z,999.4
2017-07-12T03:32:03.218Z,999.39
2017-07-12T03:33:03.241Z,999.41
2017-07-12T03:34:03.265Z,999.39
2017-07-12T03:35:03.289Z,999.39
2017-07-12T03:36:03.312Z,999.37
2017-07-12T03:37:03.334Z,999.35
2017-07-12T03:38:03.358Z,999.34
2017-07-12T03:39:03.432Z,999.38
2017-07-12T03:40:03.408Z,999.37
2017-07-12T03:41:03.428Z,999.34
2017-07-12T03:42:03.454Z,999.29
2017-07-12T03:43:03.476Z,999.3
2017-07-12T03:44:03.502Z,999.33
2017-07-12T03:45:03.522Z,999.37
2017-07-12T03:46:03.546Z,999.35
2017-07-12T03:47:03.569Z,999.33
2017-07-12T03:48:03.594Z,999.38
2017-07-12T03:49:03.618Z,999.37
2017-07-12T03:50:03.641Z,999.32
2017-07-12T03:51:03.664Z,999.31
2017-07-12T03:52:03.687Z,999.35
2017-07-12T03:53:03.710Z,999.31
2017-07-12T03:54:03.735Z,999.37
2017-07-12T03:55:03.758Z,999.37
2017-07-12T03:56:03.780Z,999.35
2017-07-12T03:57:03.804Z,999.35
2017-07-12T03:58:03.828Z,999.34
2017-07-12T03:59:03.851Z,999.34
2017-07-12T04:00:03.875Z,999.33
2017-07-12T04:01:03.898Z,999.37
2017-07-12T04:02:03.920Z,999.37
2017-07-12T04:03:03.944Z,999.37
2017-07-12T04:04:03.969Z,999.39
2017-07-12T04:05:03.990Z,999.38
2017-07-12T04:06:04.015Z,999.37
2017-07-12T04:07:04.037Z,999.35
2017-07-12T04:08:04.062Z,999.32
2017-07-12T04:09:04.083Z,999.31
2017-07-12T04:10:04.107Z,999.3
2017-07-12T04:11:04.132Z,999.31
2017-07-12T04:12:04.154Z,999.3
2017-07-12T04:13:04.177Z,999.34
2017-07-12T04:14:04.200Z,999.29
2017-07-12T04:15:04.225Z,999.28
2017-07-12T04:16:04.248Z,999.27
2017-07-12T04:17:04.270Z,999.24
2017-07-12T04:18:04.293Z,999.26
2017-07-12T04:19:04.317Z,999.2
2017-07-12T04:20:04.340Z,999.22
2017-07-12T04:21:04.363Z,999.24
2017-07-12T04:22:04.387Z,999.23
2017-07-12T04:23:04.412Z,999.25
2017-07-12T04:24:04.433Z,999.26
2017-07-12T04:25:04.457Z,999.27
2017-07-12T04:26:04.481Z,999.27
2017-07-12T04:27:04.504Z,999.29
2017-07-12T04:28:04.527Z,999.27
2017-07-12T04:29:04.551Z,999.28
2017-07-12T04:30:04.574Z,999.23
2017-07-12T04:31:04.597Z,999.21
2017-07-12T04:32:04.620Z,999.17
2017-07-12T04:33:04.643Z,999.16
2017-07-12T04:34:04.668Z,999.12
2017-07-12T04:35:04.690Z,999.19
2017-07-12T04:36:04.713Z,999.14
2017-07-12T04:37:04.737Z,999.15
2017-07-12T04:38:04.760Z,999.13
2017-07-12T04:39:04.784Z,999.13
2017-07-12T04:40:04.808Z,999.12
2017-07-12T04:41:04.831Z,999.14
2017-07-12T04:42:04.853Z,999.15
2017-07-12T04:43:04.877Z,999.12
2017-07-12T04:44:04.900Z,999.07
2017-07-12T04:45:04.924Z,999.05
2017-07-12T04:46:04.946Z,999.1
2017-07-12T04:47:04.971Z,999.06
2017-07-12T04:48:04.997Z,999.07
2017-07-12T04:49:05.017Z,999
2017-07-12T04:50:05.039Z,999
2017-07-12T04:51:05.065Z,998.97
2017-07-12T04:52:05.088Z,998.94
2017-07-12T04:53:05.111Z,998.95
2017-07-12T04:54:05.134Z,998.91
2017-07-12T04:55:05.159Z,998.92
2017-07-12T04:56:05.180Z,998.91
2017-07-12T04:57:05.205Z,998.89
2017-07-12T04:58:05.230Z,998.84
2017-07-12T04:59:05.251Z,998.87
2017-07-12T05:00:05.275Z,998.81
2017-07-12T05:01:05.297Z,998.81
2017-07-12T05:02:05.321Z,998.83
2017-07-12T05:03:05.345Z,998.83
2017-07-12T05:04:05.368Z,998.81
2017-07-12T05:05:05.390Z,998.83
2017-07-12T05:06:05.417Z,998.81
2017-07-12T05:07:05.438Z,998.83
2017-07-12T05:08:05.461Z,998.82
2017-07-12T05:09:05.485Z,998.78
2017-07-12T05:10:05.509Z,998.78
2017-07-12T05:11:05.532Z,998.82
2017-07-12T05:12:05.557Z,998.8
2017-07-12T05:13:05.578Z,998.76
2017-07-12T05:14:05.654Z,998.76
2017-07-12T05:15:05.625Z,998.8
2017-07-12T05:16:05.649Z,998.78
2017-07-12T05:17:05.671Z,998.78
2017-07-12T05:18:05.698Z,998.81
2017-07-12T05:19:05.720Z,998.82
2017-07-12T05:20:05.744Z,998.83
2017-07-12T05:21:05.767Z,998.88
2017-07-12T05:22:05.792Z,998.84
2017-07-12T05:23:05.816Z,998.86
2017-07-12T05:24:05.838Z,998.88
2017-07-12T05:25:05.864Z,998.85
2017-07-12T05:26:05.886Z,998.87
2017-07-12T05:27:05.908Z,998.83
2017-07-12T05:28:05.935Z,998.79
2017-07-12T05:29:05.957Z,998.79
2017-07-12T05:30:05.978Z,998.8
2017-07-12T05:31:06.003Z,998.8
2017-07-12T05:32:06.103Z,998.8
2017-07-12T05:33:06.051Z,998.78
2017-07-12T05:34:06.074Z,998.8
2017-07-12T05:35:06.097Z,998.79
2017-07-12T05:36:06.122Z,998.77
2017-07-12T05:37:06.145Z,998.77
2017-07-12T05:38:06.168Z,998.78
2017-07-12T05:39:06.194Z,998.77
2017-07-12T05:40:06.217Z,998.77
2017-07-12T05:41:06.239Z,998.79
2017-07-12T05:42:06.265Z,998.77
2017-07-12T05:43:06.287Z,998.79
2017-07-12T05:44:06.309Z,998.78
2017-07-12T05:45:06.333Z,998.8
2017-07-12T05:46:06.358Z,998.79
2017-07-12T05:47:06.382Z,998.81
2017-07-12T05:48:06.404Z,998.81
2017-07-12T05:49:06.429Z,998.79
2017-07-12T05:50:06.453Z,998.76
2017-07-12T05:51:06.476Z,998.74
2017-07-12T05:52:06.501Z,998.76
2017-07-12T05:53:06.524Z,998.75
2017-07-12T05:54:06.547Z,998.76
2017-07-12T05:55:06.570Z,998.82
2017-07-12T05:56:06.595Z,998.81
2017-07-12T05:57:06.619Z,998.81
2017-07-12T05:58:06.646Z,998.82
2017-07-12T05:59:06.666Z,998.81
2017-07-12T06:00:06.691Z,998.84
2017-07-12T06:01:06.715Z,998.79
2017-07-12T06:02:06.740Z,998.78
2017-07-12T06:03:06.765Z,998.81
2017-07-12T06:04:06.786Z,998.79
2017-07-12T06:05:06.811Z,998.75
2017-07-12T06:06:06.833Z,998.8
2017-07-12T06:07:06.858Z,998.79
2017-07-12T06:08:06.883Z,998.77
2017-07-12T06:09:06.906Z,998.77
2017-07-12T06:10:06.929Z,998.76
2017-07-12T06:11:06.953Z,998.79
2017-07-12T06:12:06.979Z,998.73
2017-07-12T06:13:07.002Z,998.71
2017-07-12T06:14:07.027Z,998.69
2017-07-12T06:15:07.050Z,998.68
2017-07-12T06:16:07.074Z,998.65
2017-07-12T06:17:07.098Z,998.66
2017-07-12T06:18:07.121Z,998.65
2017-07-12T06:19:07.147Z,998.64
2017-07-12T06:20:07.171Z,998.69
2017-07-12T06:21:07.198Z,998.67
2017-07-12T06:22:07.219Z,998.69
2017-07-12T06:23:07.243Z,998.68
2017-07-12T06:24:07.267Z,998.72
2017-07-12T06:25:07.292Z,998.65
2017-07-12T06:26:07.315Z,998.6
2017-07-12T06:27:07.341Z,998.62
2017-07-12T06:28:07.363Z,998.63
2017-07-12T06:29:07.388Z,998.63
2017-07-12T06:30:07.413Z,998.59
2017-07-12T06:31:07.437Z,998.56
2017-07-12T06:32:07.461Z,998.52
2017-07-12T06:33:07.484Z,998.51
2017-07-12T06:34:07.509Z,998.53
2017-07-12T06:35:07.534Z,998.53
2017-07-12T06:36:07.563Z,998.53
2017-07-12T06:37:07.581Z,998.52
2017-07-12T06:38:07.607Z,998.48
2017-07-12T06:39:07.629Z,998.53
2017-07-12T06:40:07.654Z,998.53
2017-07-12T06:41:07.679Z,998.49
2017-07-12T06:42:07.705Z,998.54
2017-07-12T06:43:07.739Z,998.45
2017-07-12T06:44:07.763Z,998.47
2017-07-12T06:45:07.778Z,998.47
2017-07-12T06:46:07.803Z,998.46
2017-07-12T06:47:07.826Z,998.46
2017-07-12T06:48:07.850Z,998.45
2017-07-12T06:49:07.875Z,998.44
2017-07-12T06:50:07.898Z,998.46
2017-07-12T06:51:07.923Z,998.45
2017-07-12T06:52:07.949Z,998.48
2017-07-12T06:53:07.972Z,998.41
2017-07-12T06:54:07.997Z,998.41
2017-07-12T06:55:08.025Z,998.4
2017-07-12T06:56:08.048Z,998.41
2017-07-12T06:57:08.074Z,998.39
2017-07-12T06:58:08.097Z,998.35
2017-07-12T06:59:08.126Z,998.33
2017-07-12T07:00:08.147Z,998.35
2017-07-12T07:01:08.171Z,998.38
2017-07-12T07:02:08.198Z,998.32
2017-07-12T07:03:08.220Z,998.33
2017-07-12T07:04:08.248Z,998.29
2017-07-12T07:05:08.269Z,998.32
2017-07-12T07:06:08.295Z,998.24
2017-07-12T07:07:08.319Z,998.24
2017-07-12T07:08:08.343Z,998.24
2017-07-12T07:09:08.368Z,998.22
2017-07-12T07:10:08.394Z,998.24
2017-07-12T07:11:08.419Z,998.2
2017-07-12T07:12:08.443Z,998.19
2017-07-12T07:13:08.468Z,998.19
2017-07-12T07:14:08.494Z,998.19
2017-07-12T07:15:08.517Z,998.23
2017-07-12T07:16:08.542Z,998.18
2017-07-12T07:17:08.569Z,998.16
2017-07-12T07:18:08.592Z,998.19
2017-07-12T07:19:08.616Z,998.16
2017-07-12T07:20:08.642Z,998.16
2017-07-12T07:21:08.666Z,998.16
2017-07-12T07:22:08.692Z,998.12
2017-07-12T07:23:08.716Z,998.14
2017-07-12T07:24:08.744Z,998.1
2017-07-12T07:25:08.766Z,998.14
2017-07-12T07:26:08.793Z,998.13
2017-07-12T07:27:08.819Z,998.1
2017-07-12T07:28:08.843Z,998.15
2017-07-12T07:29:08.867Z,998.1
2017-07-12T07:30:08.892Z,998.14
2017-07-12T07:31:08.917Z,998.11
2017-07-12T07:32:08.942Z,998.07
2017-07-12T07:33:08.968Z,998.1
2017-07-12T07:34:08.992Z,998.09
2017-07-12T07:35:09.071Z,998.06
2017-07-12T07:36:09.132Z,998.04
2017-07-12T07:37:09.171Z,998.04
2017-07-12T07:38:09.180Z,997.96
2017-07-12T07:39:09.118Z,997.93
2017-07-12T07:40:09.146Z,997.94
2017-07-12T07:41:09.277Z,997.9
2017-07-12T07:42:09.196Z,997.9
2017-07-12T07:43:09.221Z,997.89
2017-07-12T07:44:09.246Z,997.9
2017-07-12T07:45:09.269Z,997.87
2017-07-12T07:46:09.295Z,997.91
2017-07-12T07:47:09.321Z,997.86
2017-07-12T07:48:09.347Z,997.88
2017-07-12T07:49:09.372Z,997.84
2017-07-12T07:50:09.398Z,997.87
2017-07-12T07:51:09.423Z,997.9
2017-07-12T07:52:09.449Z,997.86
2017-07-12T07:53:09.474Z,997.81
2017-07-12T07:54:09.501Z,997.82
2017-07-12T07:55:09.525Z,997.8
2017-07-12T07:56:09.550Z,997.84
2017-07-12T07:57:09.576Z,997.85
2017-07-12T07:58:09.602Z,997.79
2017-07-12T07:59:09.628Z,997.79
2017-07-12T08:00:09.653Z,997.77
2017-07-12T08:01:09.679Z,997.8
2017-07-12T08:02:09.706Z,997.76
2017-07-12T08:03:09.730Z,997.74
2017-07-12T08:04:09.757Z,997.72
2017-07-12T08:05:09.783Z,997.73
2017-07-12T08:06:09.808Z,997.71
2017-07-12T08:07:09.835Z,997.73
2017-07-12T08:08:09.861Z,997.71
2017-07-12T08:09:09.886Z,997.71
2017-07-12T08:10:09.915Z,997.7
2017-07-12T08:11:09.938Z,997.66
2017-07-12T08:12:09.964Z,997.63
2017-07-12T08:13:09.991Z,997.63
2017-07-12T08:14:10.014Z,997.65
2017-07-12T08:15:10.047Z,997.57
2017-07-12T08:16:10.067Z,997.63
2017-07-12T08:17:10.093Z,997.61
2017-07-12T08:18:10.118Z,997.62
2017-07-12T08:19:10.145Z,997.62
2017-07-12T08:20:10.172Z,997.58
2017-07-12T08:21:10.198Z,997.56
2017-07-12T08:22:10.223Z,997.61
2017-07-12T08:23:10.250Z,997.58
2017-07-12T08:24:10.277Z,997.6
2017-07-12T08:25:10.301Z,997.57
2017-07-12T08:26:10.329Z,997.56
2017-07-12T08:27:10.354Z,997.51
2017-07-12T08:28:10.380Z,997.51
2017-07-12T08:29:10.406Z,997.52
2017-07-12T08:30:10.433Z,997.54
2017-07-12T08:31:10.460Z,997.53
2017-07-12T08:32:10.487Z,997.51
2017-07-12T08:33:10.515Z,997.46
2017-07-12T08:34:10.538Z,997.47
2017-07-12T08:35:10.569Z,997.48
2017-07-12T08:36:10.592Z,997.46
2017-07-12T08:37:10.619Z,997.42
2017-07-12T08:38:10.644Z,997.48
2017-07-12T08:39:10.670Z,997.43
2017-07-12T08:40:10.697Z,997.43
2017-07-12T08:41:10.722Z,997.42
2017-07-12T08:42:10.751Z,997.47
2017-07-12T08:43:10.775Z,997.44
2017-07-12T08:44:10.802Z,997.43
2017-07-12T08:45:10.828Z,997.42
2017-07-12T08:46:10.856Z,997.43
2017-07-12T08:47:10.880Z,997.43
2017-07-12T08:48:10.909Z,997.4
2017-07-12T08:49:10.936Z,997.42
2017-07-12T08:50:10.961Z,997.39
2017-07-12T08:51:10.988Z,997.41
2017-07-12T08:52:11.013Z,997.45
2017-07-12T08:53:11.040Z,997.39
2017-07-12T08:54:11.067Z,997.41
2017-07-12T08:55:11.095Z,997.4
2017-07-12T08:56:11.122Z,997.42
2017-07-12T08:57:11.167Z,997.41
2017-07-12T08:58:11.173Z,997.46
2017-07-12T08:59:11.226Z,997.48
2017-07-12T09:00:11.230Z,997.46
2017-07-12T09:01:11.254Z,997.46
2017-07-12T09:02:11.279Z,997.46
2017-07-12T09:03:11.307Z,997.44
2017-07-12T09:04:11.332Z,997.49
2017-07-12T09:05:11.359Z,997.5
2017-07-12T09:06:11.387Z,997.49
2017-07-12T09:07:11.413Z,997.47
2017-07-12T09:08:11.440Z,997.39
2017-07-12T09:09:11.467Z,997.43
2017-07-12T09:10:11.493Z,997.39
2017-07-12T09:11:11.518Z,997.38
2017-07-12T09:12:11.545Z,997.36
2017-07-12T09:13:11.571Z,997.38
2017-07-12T09:14:11.601Z,997.42
2017-07-12T09:15:11.627Z,997.39
2017-07-12T09:16:11.651Z,997.38
2017-07-12T09:17:11.678Z,997.4
2017-07-12T09:18:11.706Z,997.37
2017-07-12T09:19:11.733Z,997.33
2017-07-12T09:20:11.759Z,997.42
2017-07-12T09:21:11.787Z,997.42
2017-07-12T09:22:11.814Z,997.38
2017-07-12T09:23:11.838Z,997.39
2017-07-12T09:24:11.865Z,997.34
2017-07-12T09:33:12.106Z,997.29
2017-07-12T09:34:12.134Z,997.27
2017-07-12T09:35:12.159Z,997.23
2017-07-12T09:36:12.186Z,997.2
2017-07-12T09:37:12.212Z,997.21
2017-07-12T09:38:12.238Z,997.22
2017-07-12T09:39:12.265Z,997.21
2017-07-12T09:40:12.292Z,997.21
2017-07-12T09:41:12.318Z,997.22
2017-07-12T09:42:12.349Z,997.2
2017-07-12T09:43:12.372Z,997.18
2017-07-12T09:44:12.398Z,997.17
2017-07-12T09:45:12.428Z,997.16
2017-07-12T09:46:12.452Z,997.17
2017-07-12T09:47:12.478Z,997.14
2017-07-12T09:48:12.605Z,997.13
2017-07-12T09:49:12.603Z,997.13
2017-07-12T09:50:12.741Z,997.12
2017-07-12T09:51:12.615Z,997.09
2017-07-12T09:52:12.612Z,997.08
2017-07-12T09:53:12.721Z,997.08
2017-07-12T09:54:12.749Z,997.06
2017-07-12T09:55:12.791Z,997.04
2017-07-12T09:56:12.719Z,997.06
2017-07-12T09:57:12.754Z,997.04
2017-07-12T09:58:12.770Z,997.04
2017-07-12T09:59:12.799Z,997.02
2017-07-12T10:00:12.824Z,996.98
2017-07-12T10:01:12.851Z,996.97
2017-07-12T10:02:12.880Z,996.98
2017-07-12T10:03:12.904Z,996.95
2017-07-12T10:04:12.929Z,996.93
2017-07-12T10:05:12.957Z,996.95
2017-07-12T10:06:12.985Z,996.99
2017-07-12T10:07:13.010Z,996.95
2017-07-12T10:08:13.037Z,996.96
2017-07-12T10:09:13.064Z,996.98
2017-07-12T10:10:13.091Z,997.01
2017-07-12T10:11:13.118Z,997
2017-07-12T10:12:13.144Z,996.97
2017-07-12T10:13:13.172Z,996.98
2017-07-12T10:14:13.197Z,996.96
2017-07-12T10:15:13.225Z,996.96
2017-07-12T10:16:13.252Z,996.96
2017-07-12T10:17:13.278Z,996.96
2017-07-12T10:18:13.305Z,996.97
2017-07-12T10:19:13.330Z,996.9
2017-07-12T10:20:13.357Z,996.91
2017-07-12T10:21:13.383Z,996.91
2017-07-12T10:22:13.409Z,996.95
2017-07-12T10:23:13.435Z,996.92
2017-07-12T10:24:13.462Z,996.89
2017-07-12T10:25:13.489Z,996.94
2017-07-12T10:26:13.516Z,996.91
2017-07-12T10:27:13.545Z,996.95
2017-07-12T10:28:13.571Z,996.95
2017-07-12T10:29:13.596Z,996.99
2017-07-12T10:30:13.621Z,997
2017-07-12T10:31:13.649Z,996.96
2017-07-12T10:32:13.674Z,996.99
2017-07-12T10:33:13.702Z,996.99
2017-07-12T10:34:13.727Z,996.96
2017-07-12T10:35:13.753Z,996.92
2017-07-12T10:36:13.781Z,996.95
2017-07-12T10:37:13.807Z,996.9
2017-07-12T10:38:13.833Z,996.91
2017-07-12T10:39:13.859Z,996.89
2017-07-12T10:40:13.886Z,996.88
2017-07-12T10:41:13.911Z,996.82
2017-07-12T10:42:13.940Z,996.8
2017-07-12T10:43:13.966Z,996.79
2017-07-12T10:44:13.992Z,996.72
2017-07-12T10:45:14.017Z,996.74
2017-07-12T10:46:14.044Z,996.74
2017-07-12T10:47:14.071Z,996.72
2017-07-12T10:48:14.100Z,996.73
2017-07-12T10:49:14.123Z,996.68
2017-07-12T10:50:14.152Z,996.7
2017-07-12T10:51:14.176Z,996.68
2017-07-12T10:52:14.203Z,996.67
2017-07-12T10:53:14.230Z,996.67
2017-07-12T10:54:14.257Z,996.68
2017-07-12T10:55:14.281Z,996.63
2017-07-12T10:56:14.308Z,996.66
2017-07-12T10:57:14.335Z,996.68
2017-07-12T10:58:14.361Z,996.63
2017-07-12T10:59:14.387Z,996.68
2017-07-12T11:00:14.413Z,996.68
2017-07-12T11:01:14.440Z,996.64
2017-07-12T11:02:14.465Z,996.65
2017-07-12T11:03:14.493Z,996.67
2017-07-12T11:04:14.519Z,996.71
2017-07-12T11:05:14.544Z,996.78
2017-07-12T11:06:14.573Z,996.77
2017-07-12T11:07:14.597Z,996.73
2017-07-12T11:08:14.625Z,996.78
2017-07-12T11:09:14.651Z,996.76
2017-07-12T11:10:14.676Z,996.77
2017-07-12T11:11:14.707Z,996.78
2017-07-12T11:12:14.728Z,996.74
2017-07-12T11:13:14.754Z,996.77
2017-07-12T11:14:14.781Z,996.75
2017-07-12T11:15:14.808Z,996.74
2017-07-12T11:16:14.835Z,996.73
2017-07-12T11:17:14.860Z,996.73
2017-07-12T11:18:14.888Z,996.74
2017-07-12T11:19:14.911Z,996.76
2017-07-12T11:20:14.938Z,996.75
2017-07-12T11:21:14.964Z,996.77
2017-07-12T11:22:14.992Z,996.82
2017-07-12T11:23:15.016Z,996.86
2017-07-12T11:24:15.042Z,996.87
2017-07-12T11:25:15.069Z,996.92
2017-07-12T11:26:15.098Z,996.91
2017-07-12T11:27:15.121Z,996.85
2017-07-12T11:28:15.147Z,996.86
2017-07-12T11:29:15.173Z,996.87
2017-07-12T11:30:15.201Z,996.9
2017-07-12T11:31:15.226Z,996.9
2017-07-12T11:32:15.251Z,996.9
2017-07-12T11:33:15.277Z,996.84
2017-07-12T11:34:15.306Z,996.87
2017-07-12T11:35:15.329Z,996.85
2017-07-12T11:36:15.356Z,996.89
2017-07-12T11:37:15.383Z,996.85
2017-07-12T11:38:15.408Z,996.88
2017-07-12T11:39:15.434Z,996.91
2017-07-12T11:40:15.460Z,996.93
2017-07-12T11:41:15.486Z,996.93
2017-07-12T11:42:15.513Z,996.99
2017-07-12T11:43:15.538Z,996.98
2017-07-12T11:44:15.565Z,996.99
2017-07-12T11:45:15.591Z,997
2017-07-12T11:46:15.615Z,996.96
2017-07-12T11:47:15.644Z,996.95
2017-07-12T11:48:15.673Z,996.92
2017-07-12T11:49:15.695Z,996.89
2017-07-12T11:50:15.720Z,996.92
2017-07-12T11:51:15.745Z,996.87
2017-07-12T11:52:15.774Z,996.84
2017-07-12T11:53:15.796Z,996.85
2017-07-12T11:54:15.823Z,996.81
2017-07-12T11:55:15.850Z,996.81
2017-07-12T11:56:15.876Z,996.78
2017-07-12T11:57:15.901Z,996.78
2017-07-12T11:58:15.928Z,996.74
2017-07-12T11:59:15.953Z,996.71
2017-07-12T12:00:15.977Z,996.69
2017-07-12T12:01:16.003Z,996.67
2017-07-12T12:02:16.031Z,996.68
2017-07-12T12:03:16.055Z,996.64
2017-07-12T12:04:16.080Z,996.58
2017-07-12T12:05:16.107Z,996.56
2017-07-12T12:06:16.239Z,996.57
2017-07-12T12:07:16.270Z,996.56
2017-07-12T12:08:16.182Z,996.55
2017-07-12T12:09:16.208Z,996.52
2017-07-12T12:10:16.234Z,996.49
2017-07-12T12:11:16.261Z,996.5
2017-07-12T12:12:16.286Z,996.49
2017-07-12T12:13:16.311Z,996.45
2017-07-12T12:14:16.340Z,996.47
2017-07-12T12:15:16.362Z,996.46
2017-07-12T12:16:16.387Z,996.42
2017-07-12T12:17:16.416Z,996.4
2017-07-12T12:18:16.438Z,996.43
2017-07-12T12:19:16.463Z,996.42
2017-07-12T12:20:16.489Z,996.38
2017-07-12T12:21:16.515Z,996.4
2017-07-12T12:22:16.540Z,996.39
2017-07-12T12:23:16.565Z,996.36
2017-07-12T12:24:16.593Z,996.36
2017-07-12T12:25:16.617Z,996.36
2017-07-12T12:26:16.642Z,996.38
2017-07-12T12:27:16.667Z,996.36
2017-07-12T12:28:16.693Z,996.34
2017-07-12T12:29:16.719Z,996.36
2017-07-12T12:30:16.745Z,996.39
2017-07-12T12:31:16.771Z,996.33
2017-07-12T12:32:16.795Z,996.31
2017-07-12T12:33:16.821Z,996.31
2017-07-12T12:34:16.845Z,996.29
2017-07-12T12:35:16.870Z,996.27
2017-07-12T12:36:16.897Z,996.31
2017-07-12T12:37:16.921Z,996.27